• Join FlightAware (Why Join?)
  • Login
  • US Flag 
 
02:28PM EST


 

Airport Tracker/Info


-or-


 

Live Flight TrackerFlight Track Log ✈ SKW6330 ✈ 15-Apr-2013 ✈ KFAT - KLAX

Flight Track Log - Related Links

Times and Time Zones

All times are in EDT time to prevent confusion due to time zone crossing. See the SKW6330 flight status page for this flight to view local times or setup timezone preferences in your user account.

Time Position Orientation Groundspeed Altitude Reporting Facility
EDT Latitude Longitude Course Direction KTS MPH feet Rate Location/Type
10:53PM 36.7739 -119.7711 158° South 177 204 2,500  Level Oakland Center
10:54PM 36.7278 -119.7361 149° Southeast 207 238 4,600 2,100 Climbing Oakland Center
10:55PM 36.6797 -119.7078 155° Southeast 191 220 6,800 2,040 Climbing Oakland Center
10:56PM 36.6392 -119.6946 158° South  Level FlightAware Approximate
10:56PM 36.6306 -119.6803 156° South 194 223 8,800  Level Oakland Center
10:57PM 36.5504 -119.6418 158° South  Level FlightAware Approximate
10:57PM 36.5808 -119.6544 157° South 194 223 10,500  Level Oakland Center
10:58PM 36.4846 -119.6090 158° South  Level FlightAware Approximate
10:58PM 36.5236 -119.6247 157° South 218 251 11,900  Level Oakland Center
10:59PM 36.4614 -119.5917 157° South 240 276 13,500 1,620 Climbing Oakland Center
11:00PM 36.3875 -119.5547 158° South 238 274 15,300 1,320 Climbing Oakland Center
11:01PM 36.3214 -119.5208 158° South 256 295 16,200 960 Climbing Oakland Center
11:02PM 36.2497 -119.4831 157° South 277 319 17,300 1,080 Climbing Oakland Center
11:03PM 36.1747 -119.4428 157° South 290 334 18,500 1,200 Climbing Oakland Center
11:04PM 36.1031 -119.4044 157° South 282 325 19,800 1,140 Climbing Oakland Center
11:05PM 36.0344 -119.3622 154° Southeast 275 316 20,900 960 Climbing Oakland Center
11:06PM 35.9661 -119.3208 154° Southeast 275 316 21,800 780 Climbing Oakland Center
11:07PM 35.8969 -119.2786 154° Southeast 274 315 22,500 540 Climbing Oakland Center
11:08PM 35.8244 -119.2389 156° South 280 322 23,000 240 Climbing Oakland Center
11:09PM 35.7458 -119.1978 157° South 294 338 23,000  Level Oakland Center
11:10PM 35.6644 -119.1519 155° Southeast 309 356 23,000  Level Oakland Center
11:11PM 35.6156 -119.1233 155° Southeast 317 365 23,000  Level Los Angeles Center
11:12PM 35.5342 -119.0758 155° Southeast 321 369 23,000  Level Los Angeles Center
11:13PM 35.4531 -119.0275 154° Southeast 322 371 23,000  Level Los Angeles Center
11:14PM 35.3731 -118.9783 153° Southeast 321 369 23,000  Level Los Angeles Center
11:15PM 35.2608 -118.9100 154° Southeast 321 369 23,000 -360 Level Los Angeles Center
11:16PM 35.1806 -118.8631 154° Southeast 319 367 22,200 -1,200 Descending Los Angeles Center
11:17PM 35.0800 -118.8064 155° Southeast 328 377 20,300 -1,860 Descending Los Angeles Center
11:18PM 34.9994 -118.7578 154° Southeast 324 373 18,400 -2,040 Descending Los Angeles Center
11:19PM 34.9206 -118.7117 154° Southeast 315 362 16,200 -1,980 Descending Los Angeles Center
11:20PM 34.8325 -118.6633 156° South 314 361 14,400 -1,680 Descending Los Angeles Center
11:21PM 34.7603 -118.6214 154° Southeast 289 333 12,800 -1,500 Descending Los Angeles Center
11:22PM 34.6906 -118.5800 154° Southeast 277 319 11,300 -900 Descending Los Angeles Center
11:23PM 34.6222 -118.5406 155° Southeast 271 312 11,000 -180 Descending Los Angeles Center
11:24PM 34.5564 -118.5011 154° Southeast 264 304 11,000  Level Los Angeles Center
11:25PM 34.4886 -118.4606 154° Southeast 272 313 11,000 -120 Level Los Angeles Center
11:26PM 34.4211 -118.4219 155° Southeast 269 310 10,800 -900 Descending Los Angeles Center
11:27PM 34.3500 -118.3833 156° South 269 310 9,400 -1,680 Descending Southern California TRACON
11:29PM 34.2722 -118.3408 156° South 270 311 7,400 -1,320 Descending Los Angeles Center
11:30PM 34.2092 -118.3017 153° Southeast 263 303 6,400 -720 Descending Los Angeles Center
11:31PM 34.1617 -118.2725 153° Southeast 217 250 6,000 -300 Descending Los Angeles Center
11:32PM 34.1153 -118.2428 152° Southeast 199 229 5,900 -660 Descending Los Angeles Center
11:33PM 34.0711 -118.2136 151° Southeast 189 217 4,700 -1,200 Descending Los Angeles Center
11:34PM 34.0519 -118.1583 113° Southeast 182 209 3,500 -1,140 Descending Los Angeles Center
11:34PM 34.0333 -118.1167 118° Southeast 181 208 2,800 -480 Descending Southern California TRACON
11:35PM 33.9833 -118.1167 180° South 176 203 2,700 -240 Descending Southern California TRACON
11:36PM 33.9817 -118.1294 261° West 177 204 2,500 -120 Descending Los Angeles Center
11:37PM 33.9742 -118.1894 261° West 181 208 2,600  Climbing Los Angeles Center
11:38PM 33.9683 -118.2492 263° West 181 208 2,600 -360 Level Los Angeles Center
11:39PM 33.9631 -118.3067 264° West 179 206 1,900 -720 Descending Los Angeles Center
11:40PM 33.9581 -118.3503 262° West 152 175 1,200 -720 Descending Los Angeles Center